Annahilt, United Kingdom
Current Conditions -  °F | °C
As of 6:20 AM on Thursday 29 Jan 2015 (Local Time) from EGAC Reporting Station
Snow Showers Snow Showers  
Wind Chill: -3°   Ceiling: 2000
Heat Index:   Visibility: 6mi
Dew Point:   Wind: 10mph
Humidity: 93%   Direction: 230°SW
Pressure: 29.03"   Gusts: NA
Location:  54.43°N, 6°W
Report Text: EGAC 290620Z 23009KT 9999 -SHSN FEW010 SCT014 BKN020 01/M00 Q0983
Loading
Personal Weather Stations






























Interactive Weather Map New forecast layout! Learn more

10-Day Weather Forecast

Advertisements
Track Severe Weather on mobile